createdAt,value
2022-11-16T00:01:24.695Z,99910.53
2022-11-16T00:03:52.759Z,99913.47
2022-11-16T00:06:20.274Z,99910.06
2022-11-16T00:09:09.860Z,99912.28
2022-11-16T00:11:37.347Z,99903.09
2022-11-16T00:14:05.040Z,99904.28
2022-11-16T00:16:32.498Z,99900.44
2022-11-16T00:19:01.050Z,99902.63
2022-11-16T00:21:27.955Z,99905.28
2022-11-16T00:23:54.595Z,99901.44
2022-11-16T00:26:21.745Z,99904.84
2022-11-16T00:28:48.674Z,99905.56
2022-11-16T00:31:15.126Z,99906.31
2022-11-16T00:33:41.600Z,99902.44
2022-11-16T00:36:10.933Z,99887.66
2022-11-16T00:38:37.932Z,99899.06
2022-11-16T00:41:05.458Z,99899.31
2022-11-16T00:43:31.999Z,99895.91
2022-11-16T00:45:58.583Z,99908.03
2022-11-16T00:48:25.272Z,99894.72
2022-11-16T00:50:51.903Z,99886.72
2022-11-16T00:53:20.235Z,99890.84
2022-11-16T00:55:47.987Z,99882.88
2022-11-16T00:58:16.739Z,99879.75
2022-11-16T01:00:45.756Z,99891.13
2022-11-16T01:03:12.182Z,99881.66
2022-11-16T01:05:39.032Z,99872.94
2022-11-16T01:08:07.432Z,99885.53
2022-11-16T01:10:34.653Z,99890.38
2022-11-16T01:13:01.903Z,99887.00
2022-11-16T01:15:28.685Z,99882.41
2022-11-16T01:17:56.501Z,99872.50
2022-11-16T01:20:28.147Z,99875.16
2022-11-16T01:22:54.816Z,99881.22
2022-11-16T01:25:21.541Z,99880.47
2022-11-16T01:27:48.075Z,99872.03
2022-11-16T01:30:21.966Z,99865.97
2022-11-16T01:32:58.977Z,99872.75
2022-11-16T01:35:25.583Z,99864.78
2022-11-16T01:37:52.066Z,99866.25
2022-11-16T01:40:18.649Z,99860.47
2022-11-16T01:42:45.639Z,99861.19
2022-11-16T01:45:37.570Z,99864.59
2022-11-16T01:48:07.406Z,99861.94
2022-11-16T01:50:34.686Z,99871.38
2022-11-16T01:53:05.788Z,99867.25
2022-11-16T01:55:43.324Z,99866.50
2022-11-16T01:58:24.618Z,99867.97
2022-11-16T02:01:05.128Z,99860.00
2022-11-16T02:03:41.064Z,99854.66
2022-11-16T02:06:27.390Z,99856.13
2022-11-16T02:09:42.187Z,99850.81
2022-11-16T02:12:29.849Z,99840.91
2022-11-16T02:15:08.430Z,99842.09
2022-11-16T02:18:04.119Z,99842.81
2022-11-16T02:20:53.263Z,99832.91
2022-11-16T02:23:35.094Z,99829.50
2022-11-16T02:26:38.645Z,99834.38
2022-11-16T02:29:20.306Z,99834.38
2022-11-16T02:32:04.999Z,99837.03
2022-11-16T02:34:36.452Z,99833.63
2022-11-16T02:37:06.536Z,99828.31
2022-11-16T02:39:34.923Z,99834.38
2022-11-16T02:42:05.724Z,99836.31
2022-11-16T02:44:40.101Z,99831.72
2022-11-16T02:47:14.800Z,99829.78
2022-11-16T02:49:47.918Z,99829.78
2022-11-16T02:52:15.968Z,99832.44
2022-11-16T02:54:42.505Z,99839.69
2022-11-16T02:57:09.019Z,99830.25
2022-11-16T02:59:41.855Z,99826.84
2022-11-16T03:02:17.615Z,99826.84
2022-11-16T03:04:49.655Z,99828.31
2022-11-16T03:07:20.248Z,99836.31
2022-11-16T03:09:49.088Z,99838.50
2022-11-16T03:12:22.466Z,99837.78
2022-11-16T03:15:01.522Z,99831.72
2022-11-16T03:17:37.748Z,99840.44
2022-11-16T03:20:07.215Z,99845.03
2022-11-16T03:22:41.248Z,99840.16
2022-11-16T03:25:11.310Z,99837.50
2022-11-16T03:27:41.505Z,99837.97
2022-11-16T03:30:12.725Z,99846.69
2022-11-16T03:32:50.545Z,99840.63
2022-11-16T03:35:30.237Z,99833.84
2022-11-16T03:38:00.134Z,99840.06
2022-11-16T03:40:31.723Z,99840.81
2022-11-16T03:43:01.338Z,99842.00
2022-11-16T03:45:30.011Z,99845.88
2022-11-16T03:48:21.751Z,99845.59
2022-11-16T03:50:49.466Z,99850.19
2022-11-16T03:53:16.125Z,99844.59
2022-11-16T03:55:48.527Z,99844.59
2022-11-16T03:58:18.490Z,99847.72
2022-11-16T04:00:45.346Z,99859.56
2022-11-16T04:03:11.932Z,99857.84
2022-11-16T04:05:57.083Z,99866.28
2022-11-16T04:08:43.299Z,99871.78
2022-11-16T04:11:32.647Z,99862.34
2022-11-16T04:14:18.364Z,99860.13
2022-11-16T04:17:03.440Z,99869.31
2022-11-16T04:19:48.243Z,99865.63
2022-11-16T04:22:49.969Z,99860.50
2022-11-16T04:25:23.410Z,99855.63
2022-11-16T04:28:09.561Z,99869.13
2022-11-16T04:30:54.907Z,99868.41
2022-11-16T04:33:47.716Z,99858.22
2022-11-16T04:36:32.595Z,99869.03
2022-11-16T04:38:59.246Z,99880.13
2022-11-16T04:41:44.529Z,99880.31
2022-11-16T04:44:10.961Z,99881.50
2022-11-16T04:46:56.622Z,99873.72
2022-11-16T04:49:23.077Z,99880.97
2022-11-16T04:51:49.799Z,99878.31
2022-11-16T04:54:16.367Z,99882.16
2022-11-16T04:56:43.178Z,99879.69
2022-11-16T04:59:09.948Z,99885.47
2022-11-16T05:01:55.436Z,99883.72
2022-11-16T05:04:21.994Z,99880.78
2022-11-16T05:06:48.714Z,99881.97
2022-11-16T05:09:15.615Z,99889.41
2022-11-16T05:11:42.152Z,99888.66
2022-11-16T05:14:10.260Z,99887.66
2022-11-16T05:16:38.410Z,99891.19
2022-11-16T05:19:23.460Z,99901.53
2022-11-16T05:21:50.198Z,99901.25
2022-11-16T05:24:35.668Z,99902.91
2022-11-16T05:27:09.919Z,99907.94
2022-11-16T05:29:37.966Z,99904.56
2022-11-16T05:32:05.522Z,99905.91
2022-11-16T05:34:32.084Z,99905.91
2022-11-16T05:36:59.668Z,99908.78
2022-11-16T05:39:27.033Z,99905.09
2022-11-16T05:41:54.642Z,99906.75
2022-11-16T05:44:22.301Z,99909.84
2022-11-16T05:46:50.267Z,99914.16
2022-11-16T05:49:18.544Z,99917.72
2022-11-16T05:51:47.091Z,99919.34
2022-11-16T05:54:19.611Z,99925.84
2022-11-16T05:56:47.375Z,99917.88
2022-11-16T05:59:16.706Z,99925.41
2022-11-16T06:01:47.420Z,99924.38
2022-11-16T06:04:14.541Z,99929.13
2022-11-16T06:06:41.322Z,99919.41
2022-11-16T06:09:09.296Z,99917.19
2022-11-16T06:11:38.106Z,99924.88
2022-11-16T06:14:06.175Z,99926.81
2022-11-16T06:16:34.141Z,99921.66
2022-11-16T06:19:04.008Z,99919.47
2022-11-16T06:21:30.562Z,99918.72
2022-11-16T06:23:56.989Z,99916.81
2022-11-16T06:26:23.417Z,99918.72
2022-11-16T06:28:49.931Z,99915.03
2022-11-16T06:31:16.993Z,99920.81
2022-11-16T06:33:44.831Z,99921.25
2022-11-16T06:36:17.928Z,99925.59
2022-11-16T06:38:44.992Z,99923.38
2022-11-16T06:41:12.475Z,99924.56
2022-11-16T06:43:44.154Z,99929.59
2022-11-16T06:46:10.719Z,99938.47
2022-11-16T06:48:39.095Z,99935.97
2022-11-16T06:51:10.108Z,99939.97
2022-11-16T06:53:36.573Z,99942.34
2022-11-16T06:56:05.520Z,99943.25
2022-11-16T06:58:37.134Z,99954.03
2022-11-16T07:01:10.899Z,99953.44
2022-11-16T07:03:39.818Z,99946.81
2022-11-16T07:06:12.552Z,99949.63
2022-11-16T07:08:41.192Z,99953.22
2022-11-16T07:11:10.313Z,99953.81
2022-11-16T07:13:38.575Z,99955.44
2022-11-16T07:16:11.071Z,99959.72
2022-11-16T07:18:42.458Z,99965.19
2022-11-16T07:21:12.035Z,99961.22
2022-11-16T07:23:38.829Z,99963.59
2022-11-16T07:26:09.569Z,99976.56
2022-11-16T07:28:48.096Z,99974.81
2022-11-16T07:31:18.879Z,99979.81
2022-11-16T07:33:45.999Z,99987.50
2022-11-16T07:36:35.028Z,99985.28
2022-11-16T07:39:03.058Z,99990.59
2022-11-16T07:41:29.930Z,99989.56
2022-11-16T07:44:12.238Z,99994.56
2022-11-16T07:46:48.877Z,99995.00
2022-11-16T07:49:18.775Z,99993.53
2022-11-16T07:51:52.998Z,100001.06
2022-11-16T07:54:33.466Z,100001.97
2022-11-16T07:57:00.208Z,100010.69
2022-11-16T07:59:28.322Z,100012.59
2022-11-16T08:01:59.126Z,100019.06
2022-11-16T08:04:26.412Z,100013.31
2022-11-16T08:06:53.143Z,100019.38
2022-11-16T08:09:21.047Z,100026.88
2022-11-16T08:11:50.906Z,100027.59
2022-11-16T08:14:19.113Z,100038.94
2022-11-16T08:16:47.514Z,100034.38
2022-11-16T08:19:14.915Z,100039.97
2022-11-16T08:21:41.465Z,100036.88
2022-11-16T08:24:08.351Z,100035.72
2022-11-16T08:26:38.711Z,100036.44
2022-11-16T08:29:09.486Z,100039.41
2022-11-16T08:31:39.543Z,100042.03
2022-11-16T08:34:11.418Z,100036.28
2022-11-16T08:36:41.393Z,100045.28
2022-11-16T08:39:08.598Z,100042.19
2022-11-16T08:41:35.841Z,100044.13
2022-11-16T08:44:02.265Z,100045.59
2022-11-16T08:46:30.330Z,100051.63
2022-11-16T08:49:07.033Z,100050.31
2022-11-16T08:51:33.736Z,100056.94
2022-11-16T08:54:05.159Z,100053.53
2022-11-16T08:56:32.861Z,100053.84
2022-11-16T08:58:59.678Z,100055.59
2022-11-16T09:01:29.717Z,100056.63
2022-11-16T09:03:56.746Z,100051.91
2022-11-16T09:06:25.250Z,100051.91
2022-11-16T09:08:52.095Z,100050.41
2022-11-16T09:11:21.903Z,100055.41
2022-11-16T09:13:50.139Z,100057.63
2022-11-16T09:16:17.754Z,100056.72
2022-11-16T09:18:46.985Z,100057.31
2022-11-16T09:21:21.604Z,100052.56
2022-11-16T09:23:48.820Z,100054.50
2022-11-16T09:26:15.482Z,100061.13
2022-11-16T09:28:42.445Z,100067.75
2022-11-16T09:31:10.117Z,100067.31
2022-11-16T09:33:37.271Z,100072.91
2022-11-16T09:36:07.022Z,100073.75
2022-11-16T09:38:55.791Z,100067.53
2022-11-16T09:41:38.539Z,100067.84
2022-11-16T09:44:18.343Z,100071.97
2022-11-16T09:46:48.337Z,100080.53
2022-11-16T09:49:23.700Z,100075.78
2022-11-16T09:51:57.605Z,100076.97
2022-11-16T09:54:28.985Z,100073.41
2022-11-16T09:57:00.757Z,100074.44
2022-11-16T09:59:29.851Z,100078.56
2022-11-16T10:01:58.458Z,100085.34
2022-11-16T10:04:58.623Z,100079.75
2022-11-16T10:07:41.716Z,100080.78
2022-11-16T10:10:14.183Z,100087.13
2022-11-16T10:12:47.392Z,100077.22
2022-11-16T10:15:38.617Z,100078.97
2022-11-16T10:18:20.311Z,100079.09
2022-11-16T10:21:03.594Z,100070.22
2022-11-16T10:23:51.167Z,100070.97
2022-11-16T10:26:20.695Z,100067.84
2022-11-16T10:29:24.956Z,100074.91
2022-11-16T10:32:06.498Z,100071.50
2022-11-16T10:34:54.149Z,100067.66
2022-11-16T10:37:22.255Z,100077.13
2022-11-16T10:39:51.300Z,100075.94
2022-11-16T10:42:41.683Z,100071.47
2022-11-16T10:45:11.280Z,100070.84
2022-11-16T10:47:54.721Z,100066.44
2022-11-16T10:50:26.922Z,100076.91
2022-11-16T10:52:53.313Z,100072.47
2022-11-16T10:55:21.693Z,100075.53
2022-11-16T10:57:57.928Z,100079.84
2022-11-16T11:00:34.671Z,100076.72
2022-11-16T11:03:01.131Z,100076.19
2022-11-16T11:05:27.713Z,100067.88
2022-11-16T11:08:06.428Z,100077.50
2022-11-16T11:10:36.244Z,100078.84
2022-11-16T11:13:04.993Z,100077.03
2022-11-16T11:15:32.148Z,100068.09
2022-11-16T11:18:20.488Z,100070.59
2022-11-16T11:20:50.283Z,100074.16
2022-11-16T11:23:26.169Z,100071.50
2022-11-16T11:26:00.482Z,100073.25
2022-11-16T11:28:32.674Z,100065.72
2022-11-16T11:31:03.148Z,100065.31
2022-11-16T11:33:37.522Z,100060.91
2022-11-16T11:36:19.753Z,100053.66
2022-11-16T11:39:03.635Z,100055.25
2022-11-16T11:42:07.030Z,100048.28
2022-11-16T11:44:49.819Z,100045.34
2022-11-16T11:50:44.526Z,100041.75
2022-11-16T11:53:34.575Z,100033.59
2022-11-16T11:56:01.414Z,100035.06
2022-11-16T11:58:35.523Z,100033.78
2022-11-16T12:01:38.707Z,100036.34
2022-11-16T12:04:07.572Z,100045.34
2022-11-16T12:06:57.503Z,100042.59
2022-11-16T12:09:37.835Z,100038.56
2022-11-16T12:12:25.651Z,100035.75
2022-11-16T12:15:05.734Z,100036.94
2022-11-16T12:17:46.941Z,100037.66
2022-11-16T12:20:22.600Z,100040.88
2022-11-16T12:23:02.589Z,100038.94
2022-11-16T12:25:54.549Z,100031.44
2022-11-16T12:28:50.903Z,100036.56
2022-11-16T12:31:56.982Z,100035.34
2022-11-16T12:34:41.877Z,100045.66
2022-11-16T12:37:25.913Z,100043.00
2022-11-16T12:40:30.180Z,100036.75
2022-11-16T12:43:20.908Z,100026.28
2022-11-16T12:46:28.914Z,100025.00
2022-11-16T12:49:07.300Z,100014.63
2022-11-16T12:51:55.955Z,100008.03
2022-11-16T12:55:11.028Z,100007.19
2022-11-16T12:57:53.176Z,100002.78
2022-11-16T13:00:20.115Z,99997.38
2022-11-16T13:03:05.144Z,99997.81
2022-11-16T13:05:53.834Z,99997.81
2022-11-16T13:08:47.538Z,99997.81
2022-11-16T13:11:29.711Z,99996.34
2022-11-16T13:14:01.475Z,100000.94
2022-11-16T13:16:28.948Z,99990.00
2022-11-16T13:18:56.523Z,99992.22
2022-11-16T13:22:04.245Z,99987.91
2022-11-16T13:24:45.671Z,99986.72
2022-11-16T13:27:38.982Z,99981.56
2022-11-16T13:30:28.838Z,99976.25
2022-11-16T13:33:13.854Z,99984.69
2022-11-16T13:35:40.236Z,99985.41
2022-11-16T13:38:13.610Z,99987.81
2022-11-16T13:40:40.802Z,99994.78
2022-11-16T13:43:17.674Z,99990.84
2022-11-16T13:45:50.217Z,99992.22
2022-11-16T13:48:24.176Z,99990.47
2022-11-16T13:50:54.559Z,99986.06
2022-11-16T13:56:20.902Z,99979.56
2022-11-16T13:58:51.712Z,99968.44
2022-11-16T14:01:18.935Z,99966.06
2022-11-16T14:03:51.394Z,99964.13
2022-11-16T14:06:23.839Z,99961.72
2022-11-16T14:08:51.720Z,99961.25
2022-11-16T14:11:32.414Z,99961.53
2022-11-16T14:14:06.287Z,99966.41
2022-11-16T14:16:44.078Z,99963.47
2022-11-16T14:19:44.451Z,99947.22
2022-11-16T14:22:25.536Z,99948.91
2022-11-16T14:25:01.344Z,99948.06
2022-11-16T14:27:58.050Z,99949.91
2022-11-16T14:30:59.783Z,99943.28
2022-11-16T14:33:33.881Z,99942.72
2022-11-16T14:36:03.432Z,99936.13
2022-11-16T14:38:33.555Z,99944.56
2022-11-16T14:41:04.257Z,99941.63
2022-11-16T14:43:40.522Z,99939.97
2022-11-16T14:46:20.735Z,99932.81
2022-11-16T14:48:47.852Z,99939.88
2022-11-16T14:51:21.168Z,99931.16
2022-11-16T14:53:52.267Z,99918.78
2022-11-16T14:56:19.673Z,99920.59
2022-11-16T14:58:55.907Z,99909.41
2022-11-16T15:01:28.742Z,99914.91
2022-11-16T15:04:04.427Z,99912.41
2022-11-16T15:06:48.153Z,99910.41
2022-11-16T15:09:23.967Z,99911.06
2022-11-16T15:12:10.815Z,99906.38
2022-11-16T15:14:44.086Z,99911.88
2022-11-16T15:17:16.241Z,99900.63
2022-11-16T15:19:42.650Z,99903.19
2022-11-16T15:22:17.856Z,99894.19
2022-11-16T15:24:44.309Z,99895.56
2022-11-16T15:27:40.520Z,99896.22
2022-11-16T15:30:16.600Z,99877.03
2022-11-16T15:32:44.779Z,99876.94
2022-11-16T15:35:32.037Z,99887.00
2022-11-16T15:38:24.859Z,99888.38
2022-11-16T15:41:03.163Z,99873.50
2022-11-16T15:43:32.984Z,99871.00
2022-11-16T15:46:01.222Z,99866.31
2022-11-16T15:48:28.528Z,99863.81
2022-11-16T15:51:05.040Z,99850.72
2022-11-16T15:53:46.467Z,99848.53
2022-11-16T15:56:30.083Z,99842.19
2022-11-16T15:59:09.204Z,99841.63
2022-11-16T16:01:44.362Z,99836.50
2022-11-16T16:04:17.213Z,99837.09
2022-11-16T16:06:50.516Z,99833.44
2022-11-16T16:09:19.794Z,99819.59
2022-11-16T16:11:46.386Z,99810.59
2022-11-16T16:14:25.442Z,99828.91
2022-11-16T16:16:54.656Z,99843.53
2022-11-16T16:19:33.831Z,99838.84
2022-11-16T16:22:00.831Z,99835.91
2022-11-16T16:24:38.832Z,99832.69
2022-11-16T16:27:22.869Z,99835.81
2022-11-16T16:29:51.811Z,99821.50
2022-11-16T16:32:26.101Z,99825.34
2022-11-16T16:34:53.820Z,99821.97
2022-11-16T16:37:20.386Z,99805.75
2022-11-16T16:39:46.823Z,99808.09
2022-11-16T16:42:15.548Z,99805.16
2022-11-16T16:44:43.503Z,99803.69
2022-11-16T16:47:10.643Z,99806.06
2022-11-16T16:49:37.330Z,99807.25
2022-11-16T16:52:04.959Z,99803.88
2022-11-16T16:54:31.465Z,99802.41
2022-11-16T16:56:58.350Z,99809.34
2022-11-16T16:59:24.937Z,99804.94
2022-11-16T17:01:51.714Z,99802.72
2022-11-16T17:04:18.337Z,99793.72
2022-11-16T17:06:46.561Z,99786.22
2022-11-16T17:09:13.511Z,99771.19
2022-11-16T17:11:39.992Z,99785.66
2022-11-16T17:14:07.732Z,99791.41
2022-11-16T17:16:37.325Z,99784.38
2022-11-16T17:19:04.658Z,99782.59
2022-11-16T17:21:31.609Z,99781.59
2022-11-16T17:23:58.084Z,99776.44
2022-11-16T17:26:29.047Z,99778.06
2022-11-16T17:28:56.933Z,99780.88
2022-11-16T17:31:24.617Z,99779.84
2022-11-16T17:33:51.559Z,99781.50
2022-11-16T17:36:18.685Z,99785.03
2022-11-16T17:38:45.526Z,99787.41
2022-11-16T17:41:19.014Z,99775.03
2022-11-16T17:43:46.791Z,99779.59
2022-11-16T17:46:15.733Z,99772.97
2022-11-16T17:48:43.707Z,99765.19
2022-11-16T17:51:15.643Z,99758.88
2022-11-16T17:53:44.190Z,99757.41
2022-11-16T17:56:11.803Z,99755.22
2022-11-16T17:58:38.495Z,99754.59
2022-11-16T18:01:05.239Z,99754.31
2022-11-16T18:03:32.209Z,99756.22
2022-11-16T18:06:13.787Z,99752.09
2022-11-16T18:08:42.825Z,99746.34
2022-11-16T18:11:11.692Z,99749.75
2022-11-16T18:16:43.295Z,99753.00
2022-11-16T18:19:14.749Z,99748.00
2022-11-16T18:21:42.011Z,99747.81
2022-11-16T18:24:09.248Z,99742.03
2022-11-16T18:26:35.878Z,99744.53
2022-11-16T18:29:02.396Z,99747.47
2022-11-16T18:31:29.744Z,99753.81
2022-11-16T18:33:56.190Z,99750.56
2022-11-16T18:36:22.929Z,99740.69
2022-11-16T18:38:49.508Z,99741.13
2022-11-16T18:41:19.908Z,99739.22
2022-11-16T18:43:58.544Z,99736.09
2022-11-16T18:46:27.190Z,99728.59
2022-11-16T18:48:54.390Z,99730.06
2022-11-16T18:51:21.713Z,99724.75
2022-11-16T18:53:48.334Z,99721.66
2022-11-16T18:56:15.980Z,99721.94
2022-11-16T18:58:50.216Z,99720.75
2022-11-16T19:01:19.204Z,99714.28
2022-11-16T19:03:46.036Z,99709.69
2022-11-16T19:06:14.723Z,99703.50
2022-11-16T19:08:42.135Z,99702.59
2022-11-16T19:11:15.945Z,99701.41
2022-11-16T19:13:43.665Z,99696.41
2022-11-16T19:16:12.348Z,99695.94
2022-11-16T19:18:39.241Z,99678.84
2022-11-16T19:21:11.283Z,99679.56
2022-11-16T19:23:39.875Z,99668.97
2022-11-16T19:26:07.343Z,99662.91
2022-11-16T19:28:40.846Z,99658.34
2022-11-16T19:31:15.255Z,99642.44
2022-11-16T19:33:41.973Z,99641.69
2022-11-16T19:36:13.481Z,99638.59
2022-11-16T19:38:40.480Z,99634.00
2022-11-16T19:41:08.108Z,99628.25
2022-11-16T19:43:35.044Z,99626.78
2022-11-16T19:46:03.926Z,99622.22
2022-11-16T19:48:32.254Z,99619.84
2022-11-16T19:51:13.133Z,99615.53
2022-11-16T19:53:40.384Z,99597.69
2022-11-16T19:56:10.141Z,99597.22
2022-11-16T19:58:38.285Z,99590.00
2022-11-16T20:01:08.021Z,99587.63
2022-11-16T20:03:35.007Z,99583.78
2022-11-16T20:06:09.044Z,99573.91
2022-11-16T20:08:36.876Z,99571.25
2022-11-16T20:11:12.057Z,99556.78
2022-11-16T20:13:38.670Z,99559.44
2022-11-16T20:16:07.172Z,99552.94
2022-11-16T20:18:33.608Z,99543.53
2022-11-16T20:21:01.761Z,99536.28
2022-11-16T20:23:28.941Z,99542.34
2022-11-16T20:25:55.321Z,99535.09
2022-11-16T20:28:21.727Z,99540.69
2022-11-16T20:30:48.818Z,99539.22
2022-11-16T20:33:15.261Z,99538.78
2022-11-16T20:35:41.791Z,99536.41
2022-11-16T20:38:08.250Z,99536.94
2022-11-16T20:40:34.707Z,99530.00
2022-11-16T20:43:01.401Z,99529.53
2022-11-16T20:45:27.939Z,99515.06
2022-11-16T20:47:54.403Z,99515.81
2022-11-16T20:50:20.803Z,99510.78
2022-11-16T20:52:52.413Z,99498.69
2022-11-16T20:55:19.236Z,99492.94
2022-11-16T20:57:45.621Z,99491.28
2022-11-16T21:00:12.958Z,99492.75
2022-11-16T21:02:39.376Z,99488.44
2022-11-16T21:05:06.182Z,99486.06
2022-11-16T21:07:32.817Z,99482.66
2022-11-16T21:10:17.792Z,99481.47
2022-11-16T21:13:03.160Z,99467.03
2022-11-16T21:15:29.603Z,99468.47
2022-11-16T21:17:56.011Z,99449.44
2022-11-16T21:20:29.703Z,99444.13
2022-11-16T21:22:56.167Z,99436.91
2022-11-16T21:25:22.573Z,99444.59
2022-11-16T21:27:49.044Z,99433.22
2022-11-16T21:30:15.897Z,99429.13
2022-11-16T21:32:42.331Z,99420.69
2022-11-16T21:35:09.013Z,99413.47
2022-11-16T21:37:35.470Z,99406.22
2022-11-16T21:40:01.896Z,99404.31
2022-11-16T21:42:28.268Z,99399.44
2022-11-16T21:44:54.655Z,99391.03
2022-11-16T21:47:21.281Z,99386.44
2022-11-16T21:50:16.846Z,99374.38
2022-11-16T21:52:34.120Z,99372.91
2022-11-16T21:55:00.533Z,99360.81
2022-11-16T21:57:27.198Z,99358.91
2022-11-16T21:59:54.167Z,99360.81
2022-11-16T22:02:20.555Z,99349.47
2022-11-16T22:05:05.707Z,99349.47
2022-11-16T22:07:38.059Z,99344.44
2022-11-16T22:10:07.848Z,99337.19
2022-11-16T22:12:35.259Z,99341.03
2022-11-16T22:15:02.854Z,99327.03
2022-11-16T22:17:29.596Z,99318.34
2022-11-16T22:19:56.121Z,99318.34
2022-11-16T22:22:23.279Z,99310.38
2022-11-16T22:24:50.446Z,99307.72
2022-11-16T22:27:18.655Z,99295.63
2022-11-16T22:29:45.192Z,99287.66
2022-11-16T22:32:11.730Z,99278.50
2022-11-16T22:34:38.216Z,99264.50
2022-11-16T22:37:04.690Z,99256.06
2022-11-16T22:39:31.152Z,99258.72
2022-11-16T22:41:57.735Z,99243.53
2022-11-16T22:44:24.121Z,99240.41
2022-11-16T22:46:52.203Z,99244.25
2022-11-16T22:49:19.314Z,99236.53
2022-11-16T22:51:45.830Z,99233.88
2022-11-16T22:54:12.984Z,99224.00
2022-11-16T22:56:39.442Z,99203.25
2022-11-16T22:59:06.212Z,99197.66
2022-11-16T23:01:33.002Z,99203.44
2022-11-16T23:03:59.444Z,99193.56
2022-11-16T23:06:25.911Z,99172.31
2022-11-16T23:08:52.348Z,99170.84
2022-11-16T23:11:42.903Z,99167.47
2022-11-16T23:14:33.876Z,99144.03
2022-11-16T23:17:01.217Z,99144.03
2022-11-16T23:19:46.169Z,99146.69
2022-11-16T23:22:36.846Z,99144.03
2022-11-16T23:25:23.223Z,99135.34
2022-11-16T23:27:52.354Z,99130.50
2022-11-16T23:30:18.881Z,99129.78
2022-11-16T23:32:45.422Z,99125.66
2022-11-16T23:35:12.572Z,99115.78
2022-11-16T23:38:02.229Z,99107.56
2022-11-16T23:40:37.814Z,99094.28
2022-11-16T23:43:23.977Z,99082.66
2022-11-16T23:45:51.088Z,99073.97
2022-11-16T23:48:18.391Z,99064.09
2022-11-16T23:50:45.881Z,99050.09
2022-11-16T23:53:12.703Z,99034.63
2022-11-16T23:55:39.866Z,99017.97
2022-11-16T23:58:07.670Z,99006.63
